KVPZ/VPZ METAR and TAF weather

Enter ICAO airport designator
Station Type Date Time Source
KVPZ METAR 2019/02/18 03:56 UTC NOAA

KVPZ 180356Z AUTO 06004KT 7SM FEW008 OVC014 M02/M06 A2990 RMK AO2 SLP133 T10221056 TSNO $


Station Type Date Time Source
KVPZ Decoded METAR 2019/02/18 03:56 UTC NOAA

VALPARAISO PORTER CO MUNI, IN, United States (KVPZ) 41-27N 087-00W 231M
Feb 17, 2019 - 10:56 PM EST / 2019.02.18 0356 UTC
Wind: from the ENE (060 degrees) at 5 MPH (4 KT):0
Visibility: 7 mile(s):0
Sky conditions: overcast
Temperature: 28.0 F (-2.2 C)
Windchill: 23 F (-5 C):1
Dew Point: 21.9 F (-5.6 C)
Relative Humidity: 77%
Pressure (altimeter): 29.9 in. Hg (1012 hPa)
ob: KVPZ 180356Z AUTO 06004KT 7SM FEW008 OVC014 M02/M06 A2990 RMK AO2 SLP133 T10221056 TSNO
cycle: 4

Station Type Date Time Source
KVPZ TAF UTC NOAA

Error!


Example: see airport list